createdAt,value
2023-01-03T00:01:45.530Z,0.21
2023-01-03T00:04:12.534Z,0.21
2023-01-03T00:06:43.366Z,0.29
2023-01-03T00:09:13.012Z,0.34
2023-01-03T00:11:41.181Z,0.36
2023-01-03T00:14:08.532Z,0.39
2023-01-03T00:16:35.069Z,0.42
2023-01-03T00:19:12.319Z,0.45
2023-01-03T00:21:40.111Z,0.50
2023-01-03T00:24:07.077Z,0.43
2023-01-03T00:26:33.808Z,0.42
2023-01-03T00:29:00.810Z,0.24
2023-01-03T00:31:27.404Z,0.08
2023-01-03T00:33:54.007Z,0.05
2023-01-03T00:36:20.895Z,0.06
2023-01-03T00:38:47.459Z,-0.03
2023-01-03T00:41:16.384Z,0.01
2023-01-03T00:43:46.175Z,-0.04
2023-01-03T00:46:14.096Z,-0.12
2023-01-03T00:48:41.693Z,-0.05
2023-01-03T00:51:14.813Z,0.04
2023-01-03T00:53:42.442Z,-0.02
2023-01-03T00:56:12.745Z,-0.08
2023-01-03T00:58:40.365Z,-0.24
2023-01-03T01:01:13.768Z,-0.30
2023-01-03T01:03:42.994Z,-0.28
2023-01-03T01:06:15.545Z,-0.29
2023-01-03T01:08:43.559Z,-0.40
2023-01-03T01:11:11.716Z,-0.55
2023-01-03T01:13:38.471Z,-0.63
2023-01-03T01:16:11.354Z,-0.71
2023-01-03T01:18:39.472Z,-0.78
2023-01-03T01:21:08.179Z,-0.93
2023-01-03T01:23:36.123Z,-1.07
2023-01-03T01:26:03.920Z,-1.11
2023-01-03T01:28:30.829Z,-1.09
2023-01-03T01:31:01.841Z,-1.01
2023-01-03T01:33:29.098Z,-0.95
2023-01-03T01:35:55.575Z,-1.13
2023-01-03T01:38:22.313Z,-1.33
2023-01-03T01:40:48.825Z,-1.33
2023-01-03T01:43:21.234Z,-1.28
2023-01-03T01:45:47.872Z,-1.23
2023-01-03T01:48:15.219Z,-1.23
2023-01-03T01:50:52.587Z,-1.22
2023-01-03T01:53:23.314Z,-1.23
2023-01-03T01:55:55.388Z,-1.18
2023-01-03T01:58:25.980Z,-1.26
2023-01-03T02:00:52.899Z,-1.18
2023-01-03T02:03:19.594Z,-1.20
2023-01-03T02:05:51.087Z,-1.29
2023-01-03T02:08:17.879Z,-1.33
2023-01-03T02:11:04.082Z,-1.34
2023-01-03T02:13:42.539Z,-1.31
2023-01-03T02:16:30.641Z,-1.23
2023-01-03T02:19:28.127Z,-1.35
2023-01-03T02:22:28.645Z,-1.43
2023-01-03T02:25:13.572Z,-1.46
2023-01-03T02:28:33.965Z,-1.33
2023-01-03T02:31:24.453Z,-1.41
2023-01-03T02:34:09.862Z,-1.34
2023-01-03T02:36:39.004Z,-1.37
2023-01-03T02:39:25.801Z,-1.28
2023-01-03T02:42:00.654Z,-1.31
2023-01-03T02:44:33.679Z,-1.43
2023-01-03T02:47:08.518Z,-1.40
2023-01-03T02:49:41.751Z,-1.40
2023-01-03T02:52:15.468Z,-1.33
2023-01-03T02:55:12.870Z,-1.23
2023-01-03T02:57:45.751Z,-1.17
2023-01-03T03:00:16.685Z,-1.21
2023-01-03T03:02:50.638Z,-1.28
2023-01-03T03:05:24.773Z,-1.40
2023-01-03T03:07:52.392Z,-1.39
2023-01-03T03:10:20.169Z,-1.33
2023-01-03T03:12:52.673Z,-1.41
2023-01-03T03:15:23.585Z,-1.40
2023-01-03T03:17:54.282Z,-1.43
2023-01-03T03:20:20.786Z,-1.42
2023-01-03T03:22:58.830Z,-1.41
2023-01-03T03:25:30.108Z,-1.32
2023-01-03T03:28:02.148Z,-1.36
2023-01-03T03:30:32.326Z,-1.22
2023-01-03T03:33:02.043Z,-1.07
2023-01-03T03:35:32.324Z,-1.03
2023-01-03T03:38:00.863Z,-1.06
2023-01-03T03:40:30.227Z,-1.02
2023-01-03T03:43:05.072Z,-0.96
2023-01-03T03:46:00.178Z,-0.94
2023-01-03T03:48:36.902Z,-0.96
2023-01-03T03:51:12.585Z,-0.77
2023-01-03T03:53:41.456Z,-0.74
2023-01-03T03:56:15.749Z,-0.84
2023-01-03T03:58:51.547Z,-0.83
2023-01-03T04:01:22.207Z,-0.85
2023-01-03T04:03:51.088Z,-0.77
2023-01-03T04:06:24.549Z,-0.63
2023-01-03T04:08:51.106Z,-0.66
2023-01-03T04:11:18.197Z,-0.61
2023-01-03T04:13:45.388Z,-0.77
2023-01-03T04:16:12.286Z,-0.69
2023-01-03T04:18:38.853Z,-0.76
2023-01-03T04:21:05.611Z,-0.79
2023-01-03T04:23:32.140Z,-0.73
2023-01-03T04:25:58.721Z,-0.62
2023-01-03T04:28:25.403Z,-0.59
2023-01-03T04:30:51.970Z,-0.61
2023-01-03T04:33:18.482Z,-0.51
2023-01-03T04:35:45.265Z,-0.50
2023-01-03T04:38:11.829Z,-0.53
2023-01-03T04:40:38.635Z,-0.50
2023-01-03T04:43:05.645Z,-0.50
2023-01-03T04:45:32.236Z,-0.61
2023-01-03T04:47:58.861Z,-0.57
2023-01-03T04:50:25.450Z,-0.37
2023-01-03T04:52:51.913Z,-0.31
2023-01-03T04:55:18.484Z,-0.36
2023-01-03T04:57:45.029Z,-0.40
2023-01-03T05:00:11.988Z,-0.37
2023-01-03T05:02:38.723Z,-0.40
2023-01-03T05:05:06.003Z,-0.29
2023-01-03T05:07:33.024Z,-0.27
2023-01-03T05:09:59.542Z,-0.39
2023-01-03T05:12:26.586Z,-0.45
2023-01-03T05:14:53.732Z,-0.30
2023-01-03T05:17:21.233Z,-0.23
2023-01-03T05:19:48.634Z,-0.29
2023-01-03T05:22:15.194Z,-0.37
2023-01-03T05:24:41.714Z,-0.37
2023-01-03T05:27:08.493Z,-0.35
2023-01-03T05:29:36.841Z,-0.32
2023-01-03T05:32:05.293Z,-0.35
2023-01-03T05:34:31.992Z,-0.27
2023-01-03T05:36:58.789Z,-0.29
2023-01-03T05:39:25.370Z,-0.16
2023-01-03T05:41:52.028Z,-0.07
2023-01-03T05:44:18.592Z,-0.18
2023-01-03T05:46:45.203Z,-0.14
2023-01-03T05:49:11.943Z,-0.04
2023-01-03T05:51:38.659Z,0.00
2023-01-03T05:54:05.816Z,0.03
2023-01-03T05:56:32.844Z,0.01
2023-01-03T05:59:00.334Z,0.20
2023-01-03T06:01:26.977Z,0.05
2023-01-03T06:03:53.800Z,0.16
2023-01-03T06:06:20.387Z,0.18
2023-01-03T06:08:46.988Z,0.19
2023-01-03T06:11:15.491Z,0.10
2023-01-03T06:13:42.698Z,0.12
2023-01-03T06:16:13.106Z,0.17
2023-01-03T06:18:39.825Z,0.10
2023-01-03T06:21:06.601Z,0.13
2023-01-03T06:23:33.198Z,0.12
2023-01-03T06:26:03.409Z,0.19
2023-01-03T06:28:30.013Z,0.16
2023-01-03T06:30:56.570Z,0.13
2023-01-03T06:33:23.512Z,0.25
2023-01-03T06:35:50.284Z,0.24
2023-01-03T06:38:16.787Z,0.27
2023-01-03T06:40:50.011Z,0.37
2023-01-03T06:43:16.578Z,0.26
2023-01-03T06:45:43.973Z,0.13
2023-01-03T06:48:10.858Z,0.17
2023-01-03T06:50:42.485Z,0.28
2023-01-03T06:53:19.377Z,0.30
2023-01-03T06:55:52.762Z,0.37
2023-01-03T06:58:24.082Z,0.52
2023-01-03T07:00:50.826Z,0.38
2023-01-03T07:03:19.437Z,0.39
2023-01-03T07:05:45.964Z,0.49
2023-01-03T07:08:12.473Z,0.56
2023-01-03T07:10:39.054Z,0.62
2023-01-03T07:13:05.796Z,0.67
2023-01-03T07:15:34.086Z,0.73
2023-01-03T07:18:01.207Z,0.77
2023-01-03T07:20:27.740Z,0.79
2023-01-03T07:22:54.272Z,0.84
2023-01-03T07:25:20.778Z,0.88
2023-01-03T07:28:05.565Z,0.88
2023-01-03T07:30:37.742Z,0.95
2023-01-03T07:33:04.376Z,1.02
2023-01-03T07:35:35.217Z,1.09
2023-01-03T07:38:02.717Z,1.21
2023-01-03T07:40:32.125Z,1.29
2023-01-03T07:42:58.927Z,1.36
2023-01-03T07:45:25.520Z,1.39
2023-01-03T07:47:52.130Z,1.48
2023-01-03T07:50:18.634Z,1.52
2023-01-03T07:52:45.126Z,1.58
2023-01-03T07:55:11.709Z,1.65
2023-01-03T07:57:38.218Z,1.71
2023-01-03T08:00:05.129Z,1.78
2023-01-03T08:02:31.854Z,1.81
2023-01-03T08:04:58.597Z,1.91
2023-01-03T08:07:25.223Z,1.99
2023-01-03T08:09:51.844Z,2.01
2023-01-03T08:12:18.853Z,2.08
2023-01-03T08:14:45.389Z,2.19
2023-01-03T08:17:11.938Z,2.31
2023-01-03T08:19:43.643Z,2.45
2023-01-03T08:22:12.122Z,2.51
2023-01-03T08:24:38.750Z,2.57
2023-01-03T08:27:05.282Z,2.70
2023-01-03T08:29:31.898Z,2.76
2023-01-03T08:31:58.644Z,2.84
2023-01-03T08:34:30.542Z,2.99
2023-01-03T08:37:01.905Z,3.06
2023-01-03T08:39:34.337Z,3.19
2023-01-03T08:42:03.732Z,3.24
2023-01-03T08:44:30.651Z,3.29
2023-01-03T08:47:00.243Z,3.35
2023-01-03T08:49:27.079Z,3.44
2023-01-03T08:51:53.612Z,3.51
2023-01-03T08:54:20.125Z,3.52
2023-01-03T08:56:46.762Z,3.56
2023-01-03T08:59:13.287Z,3.55
2023-01-03T09:01:40.192Z,3.54
2023-01-03T09:04:07.036Z,3.63
2023-01-03T09:06:33.730Z,3.64
2023-01-03T09:09:05.188Z,3.71
2023-01-03T09:11:31.803Z,3.76
2023-01-03T09:13:58.751Z,3.80
2023-01-03T09:16:25.407Z,3.85
2023-01-03T09:18:51.969Z,3.87
2023-01-03T09:21:18.421Z,3.90
2023-01-03T09:23:45.084Z,3.93
2023-01-03T09:26:11.735Z,4.01
2023-01-03T09:28:38.279Z,4.03
2023-01-03T09:31:05.065Z,4.11
2023-01-03T09:33:31.692Z,4.17
2023-01-03T09:35:58.273Z,4.20
2023-01-03T09:38:24.947Z,4.23
2023-01-03T09:41:12.507Z,4.24
2023-01-03T09:43:42.446Z,4.28
2023-01-03T09:46:25.963Z,4.28
2023-01-03T09:48:54.075Z,4.27
2023-01-03T09:51:29.419Z,4.32
2023-01-03T09:53:57.880Z,4.39
2023-01-03T09:56:24.595Z,4.38
2023-01-03T09:59:12.986Z,4.36
2023-01-03T10:02:17.818Z,4.42
2023-01-03T10:05:04.393Z,4.49
2023-01-03T10:07:44.102Z,4.54
2023-01-03T10:10:27.952Z,4.60
2023-01-03T10:13:25.243Z,4.66
2023-01-03T10:16:11.294Z,4.58
2023-01-03T10:18:52.750Z,4.69
2023-01-03T10:21:37.615Z,4.70
2023-01-03T10:24:17.756Z,4.65
2023-01-03T10:26:44.740Z,4.65
2023-01-03T10:29:15.021Z,4.69
2023-01-03T10:32:06.348Z,4.74
2023-01-03T10:34:32.869Z,4.73
2023-01-03T10:36:59.519Z,4.76
2023-01-03T10:39:31.617Z,4.75
2023-01-03T10:42:00.085Z,4.75
2023-01-03T10:44:29.960Z,4.75
2023-01-03T10:46:59.748Z,4.74
2023-01-03T10:49:29.807Z,4.75
2023-01-03T10:51:59.060Z,4.71
2023-01-03T10:54:36.156Z,4.67
2023-01-03T10:57:05.237Z,4.72
2023-01-03T10:59:32.780Z,4.75
2023-01-03T11:02:15.423Z,4.70
2023-01-03T11:04:43.488Z,4.72
2023-01-03T11:07:10.061Z,4.66
2023-01-03T11:09:58.199Z,4.64
2023-01-03T11:12:41.038Z,4.61
2023-01-03T11:15:39.103Z,4.64
2023-01-03T11:18:26.877Z,4.69
2023-01-03T11:21:14.633Z,4.75
2023-01-03T11:24:16.334Z,4.72
2023-01-03T11:27:04.176Z,4.77
2023-01-03T11:29:52.391Z,4.75
2023-01-03T11:32:52.221Z,4.80
2023-01-03T11:35:43.892Z,4.82
2023-01-03T11:38:27.388Z,4.85
2023-01-03T11:41:24.191Z,4.95
2023-01-03T11:44:05.709Z,5.00
2023-01-03T11:46:48.037Z,4.97
2023-01-03T11:49:29.659Z,5.03
2023-01-03T11:52:33.414Z,5.01
2023-01-03T11:55:15.159Z,5.03
2023-01-03T11:57:44.423Z,5.11
2023-01-03T12:00:49.859Z,5.11
2023-01-03T12:03:50.693Z,5.14
2023-01-03T12:06:44.561Z,5.21
2023-01-03T12:09:14.197Z,5.08
2023-01-03T12:11:56.967Z,5.04
2023-01-03T12:14:26.179Z,5.10
2023-01-03T12:17:17.091Z,5.19
2023-01-03T12:19:53.099Z,5.06
2023-01-03T12:22:39.798Z,5.08
2023-01-03T12:25:29.498Z,5.09
2023-01-03T12:28:14.985Z,5.12
2023-01-03T12:30:41.485Z,5.14
2023-01-03T12:33:28.247Z,5.19
2023-01-03T12:36:03.947Z,5.15
2023-01-03T12:38:42.543Z,5.20
2023-01-03T12:41:28.218Z,5.21
2023-01-03T12:44:03.899Z,5.17
2023-01-03T12:46:35.643Z,5.22
2023-01-03T12:49:21.864Z,5.24
2023-01-03T12:51:48.451Z,5.24
2023-01-03T12:54:45.730Z,5.27
2023-01-03T12:57:18.184Z,5.31
2023-01-03T12:59:53.913Z,5.29
2023-01-03T13:02:38.414Z,5.30
2023-01-03T13:05:17.799Z,5.29
2023-01-03T13:07:53.069Z,5.26
2023-01-03T13:10:24.840Z,5.28
2023-01-03T13:12:52.629Z,5.25
2023-01-03T13:15:36.125Z,5.26
2023-01-03T13:18:34.883Z,5.21
2023-01-03T13:21:01.712Z,5.24
2023-01-03T13:23:57.873Z,5.27
2023-01-03T13:26:28.722Z,5.28
2023-01-03T13:29:33.655Z,5.30
2023-01-03T13:32:18.251Z,5.31
2023-01-03T13:34:44.870Z,5.31
2023-01-03T13:37:16.445Z,5.31
2023-01-03T13:39:51.970Z,5.38
2023-01-03T13:42:35.419Z,5.41
2023-01-03T13:45:10.974Z,5.40
2023-01-03T13:47:42.480Z,5.32
2023-01-03T13:50:22.486Z,5.29
2023-01-03T13:53:10.707Z,5.35
2023-01-03T13:55:57.956Z,5.36
2023-01-03T13:58:24.417Z,5.33
2023-01-03T14:01:01.852Z,5.31
2023-01-03T14:04:13.320Z,5.34
2023-01-03T14:07:01.157Z,5.31
2023-01-03T14:09:47.063Z,5.31
2023-01-03T14:12:24.615Z,5.34
2023-01-03T14:14:58.602Z,5.31
2023-01-03T14:17:32.016Z,5.33
2023-01-03T14:20:05.671Z,5.34
2023-01-03T14:22:45.311Z,5.37
2023-01-03T14:25:31.243Z,5.31
2023-01-03T14:27:57.819Z,5.23
2023-01-03T14:30:30.601Z,5.31
2023-01-03T14:32:58.309Z,5.36
2023-01-03T14:36:04.606Z,5.32
2023-01-03T14:38:33.024Z,5.30
2023-01-03T14:41:00.573Z,5.25
2023-01-03T14:43:32.162Z,5.19
2023-01-03T14:46:06.657Z,5.10
2023-01-03T14:48:33.750Z,5.06
2023-01-03T14:51:02.646Z,5.00
2023-01-03T14:53:31.263Z,4.99
2023-01-03T14:55:58.438Z,4.92
2023-01-03T14:58:33.653Z,4.85
2023-01-03T15:01:03.695Z,4.74
2023-01-03T15:03:39.758Z,4.74
2023-01-03T15:06:20.901Z,4.68
2023-01-03T15:08:50.840Z,4.57
2023-01-03T15:11:41.442Z,4.58
2023-01-03T15:14:13.506Z,4.50
2023-01-03T15:16:42.097Z,4.48
2023-01-03T15:19:14.368Z,4.43
2023-01-03T15:21:41.777Z,4.43
2023-01-03T15:24:17.475Z,4.09
2023-01-03T15:26:49.340Z,3.87
2023-01-03T15:29:19.034Z,3.65
2023-01-03T15:32:03.581Z,3.48
2023-01-03T15:34:30.257Z,3.43
2023-01-03T15:37:01.206Z,3.57
2023-01-03T15:39:49.171Z,3.71
2023-01-03T15:45:15.701Z,3.91
2023-01-03T15:47:42.955Z,3.91
2023-01-03T15:50:18.576Z,3.89
2023-01-03T15:52:46.745Z,3.93
2023-01-03T15:55:14.029Z,3.98
2023-01-03T15:57:40.869Z,3.89
2023-01-03T16:00:10.456Z,3.80
2023-01-03T16:02:37.207Z,3.76
2023-01-03T16:05:04.211Z,3.68
2023-01-03T16:07:30.733Z,3.68
2023-01-03T16:09:57.266Z,3.67
2023-01-03T16:12:33.857Z,3.78
2023-01-03T16:15:01.704Z,3.81
2023-01-03T16:17:29.309Z,3.78
2023-01-03T16:19:56.955Z,3.84
2023-01-03T16:22:48.610Z,3.86
2023-01-03T16:25:15.099Z,3.83
2023-01-03T16:27:41.822Z,3.60
2023-01-03T16:30:12.213Z,3.34
2023-01-03T16:32:38.955Z,3.08
2023-01-03T16:35:14.863Z,2.76
2023-01-03T16:37:41.601Z,2.61
2023-01-03T16:40:15.868Z,2.45
2023-01-03T16:42:42.537Z,2.31
2023-01-03T16:45:09.770Z,2.30
2023-01-03T16:47:36.904Z,2.31
2023-01-03T16:50:08.192Z,2.36
2023-01-03T16:52:37.954Z,2.39
2023-01-03T16:55:24.953Z,2.41
2023-01-03T16:57:54.744Z,2.40
2023-01-03T17:00:27.027Z,2.48
2023-01-03T17:02:54.184Z,2.52
2023-01-03T17:05:21.286Z,2.53
2023-01-03T17:07:50.368Z,2.47
2023-01-03T17:10:38.787Z,2.30
2023-01-03T17:13:12.554Z,2.30
2023-01-03T17:15:40.988Z,2.32
2023-01-03T17:18:17.397Z,2.41
2023-01-03T17:20:44.082Z,2.40
2023-01-03T17:23:11.198Z,2.37
2023-01-03T17:25:39.868Z,2.21
2023-01-03T17:28:08.397Z,2.10
2023-01-03T17:30:35.660Z,2.06
2023-01-03T17:33:02.270Z,2.01
2023-01-03T17:35:28.938Z,2.01
2023-01-03T17:38:27.120Z,2.05
2023-01-03T17:40:47.219Z,2.22
2023-01-03T17:43:24.667Z,2.40
2023-01-03T17:45:54.066Z,2.52
2023-01-03T17:48:20.660Z,2.49
2023-01-03T17:50:47.306Z,2.42
2023-01-03T17:53:17.021Z,2.44
2023-01-03T17:55:43.579Z,2.58
2023-01-03T17:58:18.490Z,2.73
2023-01-03T18:00:45.417Z,2.81
2023-01-03T18:03:12.181Z,2.91
2023-01-03T18:05:39.124Z,3.01
2023-01-03T18:08:06.098Z,3.08
2023-01-03T18:10:46.190Z,3.15
2023-01-03T18:13:28.500Z,3.22
2023-01-03T18:15:55.920Z,3.15
2023-01-03T18:18:24.535Z,3.15
2023-01-03T18:20:52.305Z,3.38
2023-01-03T18:23:25.727Z,3.26
2023-01-03T18:25:53.352Z,3.29
2023-01-03T18:28:24.693Z,3.41
2023-01-03T18:30:51.597Z,3.43
2023-01-03T18:33:18.280Z,3.46
2023-01-03T18:35:45.088Z,3.51
2023-01-03T18:38:37.848Z,3.50
2023-01-03T18:41:06.057Z,3.61
2023-01-03T18:43:33.659Z,3.61
2023-01-03T18:46:00.597Z,3.57
2023-01-03T18:48:27.366Z,3.59
2023-01-03T18:50:58.905Z,3.56
2023-01-03T18:53:29.040Z,3.62
2023-01-03T18:55:56.011Z,3.67
2023-01-03T18:58:35.451Z,3.60
2023-01-03T19:01:02.344Z,3.64
2023-01-03T19:03:31.747Z,3.70
2023-01-03T19:06:00.233Z,3.56
2023-01-03T19:08:31.061Z,3.62
2023-01-03T19:11:15.619Z,3.62
2023-01-03T19:13:48.811Z,3.64
2023-01-03T19:16:19.724Z,3.67
2023-01-03T19:18:46.353Z,3.70
2023-01-03T19:21:13.822Z,3.74
2023-01-03T19:23:42.275Z,3.71
2023-01-03T19:26:23.736Z,3.77
2023-01-03T19:28:50.322Z,3.69
2023-01-03T19:31:16.903Z,3.78
2023-01-03T19:33:43.486Z,3.75
2023-01-03T19:36:15.600Z,3.78
2023-01-03T19:38:42.070Z,3.81
2023-01-03T19:41:15.046Z,3.78
2023-01-03T19:43:41.720Z,3.78
2023-01-03T19:46:16.253Z,3.81
2023-01-03T19:48:44.083Z,4.03
2023-01-03T19:51:12.243Z,3.83
2023-01-03T19:53:39.293Z,3.90
2023-01-03T19:56:20.423Z,3.87
2023-01-03T19:58:47.326Z,3.77
2023-01-03T20:01:16.835Z,3.69
2023-01-03T20:03:43.675Z,3.73
2023-01-03T20:06:13.047Z,3.68
2023-01-03T20:08:39.980Z,3.66
2023-01-03T20:11:18.881Z,3.65
2023-01-03T20:13:46.045Z,3.50
2023-01-03T20:16:13.709Z,3.54
2023-01-03T20:18:40.878Z,3.52
2023-01-03T20:21:21.655Z,3.56
2023-01-03T20:23:52.376Z,3.50
2023-01-03T20:26:33.330Z,3.51
2023-01-03T20:29:00.150Z,3.51
2023-01-03T20:31:27.794Z,3.48
2023-01-03T20:33:54.394Z,3.46
2023-01-03T20:36:24.688Z,3.48
2023-01-03T20:38:54.353Z,3.50
2023-01-03T20:41:21.411Z,3.49
2023-01-03T20:43:48.098Z,3.52
2023-01-03T20:46:21.053Z,3.50
2023-01-03T20:48:56.647Z,3.56
2023-01-03T20:51:23.826Z,3.50
2023-01-03T20:53:54.388Z,3.55
2023-01-03T20:56:22.075Z,3.67
2023-01-03T20:58:48.627Z,3.61
2023-01-03T21:01:15.237Z,3.62
2023-01-03T21:03:42.138Z,3.74
2023-01-03T21:06:20.326Z,3.65
2023-01-03T21:08:47.499Z,3.57
2023-01-03T21:11:14.631Z,3.56
2023-01-03T21:13:41.091Z,3.52
2023-01-03T21:16:28.833Z,3.49
2023-01-03T21:18:56.025Z,3.57
2023-01-03T21:21:23.823Z,3.62
2023-01-03T21:23:50.407Z,3.56
2023-01-03T21:26:16.917Z,3.58
2023-01-03T21:28:43.376Z,3.57
2023-01-03T21:31:17.423Z,3.61
2023-01-03T21:33:44.438Z,3.59
2023-01-03T21:36:16.336Z,3.57
2023-01-03T21:38:46.075Z,3.67
2023-01-03T21:41:17.361Z,3.65
2023-01-03T21:43:44.112Z,3.67
2023-01-03T21:46:12.693Z,3.70
2023-01-03T21:48:39.417Z,3.64
2023-01-03T21:51:06.094Z,3.72
2023-01-03T21:53:33.018Z,3.80
2023-01-03T21:55:59.545Z,3.67
2023-01-03T21:58:26.092Z,3.55
2023-01-03T22:00:52.686Z,3.58
2023-01-03T22:03:19.287Z,3.59
2023-01-03T22:05:45.881Z,3.58
2023-01-03T22:08:12.465Z,3.52
2023-01-03T22:10:39.039Z,3.35
2023-01-03T22:13:07.785Z,3.30
2023-01-03T22:15:39.144Z,3.24
2023-01-03T22:18:06.104Z,3.05
2023-01-03T22:20:38.286Z,3.13
2023-01-03T22:23:05.670Z,3.13
2023-01-03T22:25:32.201Z,3.14
2023-01-03T22:27:58.812Z,3.18
2023-01-03T22:30:25.391Z,3.09
2023-01-03T22:32:51.987Z,3.02
2023-01-03T22:35:18.631Z,2.96
2023-01-03T22:37:45.387Z,2.91
2023-01-03T22:40:14.165Z,2.84
2023-01-03T22:42:41.002Z,2.84
2023-01-03T22:45:08.867Z,2.83
2023-01-03T22:47:37.117Z,2.72
2023-01-03T22:50:05.478Z,2.78
2023-01-03T22:52:32.167Z,2.78
2023-01-03T22:54:59.287Z,2.82
2023-01-03T22:57:26.048Z,2.85
2023-01-03T22:59:52.663Z,2.71
2023-01-03T23:02:23.141Z,2.56
2023-01-03T23:04:52.845Z,2.53
2023-01-03T23:07:19.474Z,2.48
2023-01-03T23:09:45.956Z,2.49
2023-01-03T23:12:12.558Z,2.64
2023-01-03T23:14:39.183Z,2.71
2023-01-03T23:17:05.865Z,2.83
2023-01-03T23:19:32.480Z,2.80
2023-01-03T23:21:59.084Z,2.83
2023-01-03T23:24:25.641Z,2.86
2023-01-03T23:26:53.044Z,2.16
2023-01-03T23:29:19.807Z,1.29
2023-01-03T23:31:46.565Z,0.96
2023-01-03T23:34:13.251Z,0.87
2023-01-03T23:36:40.142Z,0.79
2023-01-03T23:39:06.695Z,0.80
2023-01-03T23:41:33.170Z,0.81
2023-01-03T23:43:59.705Z,0.89
2023-01-03T23:46:26.332Z,0.95
2023-01-03T23:48:58.005Z,1.03
2023-01-03T23:51:25.994Z,1.11
2023-01-03T23:53:53.164Z,1.14
2023-01-03T23:56:21.991Z,1.15
2023-01-03T23:58:49.140Z,1.23
